Time;durP1;ratioP1;P1;durP2;ratioP2;P2;SDS_P1;SDS_P2;PMS_P1;PMS_P2;Temp;Humidity;BMP_temperature;BMP_pressure;BME280_temperature;BME280_humidity;BME280_pressure;Samples;Min_cycle;Max_cycle;Signal;HPM_P1;HPM_P2
2023/05/23 00:00:14;;;;;;;11.50;5.60;;;;;;;14.36;64.19;100361.14;218908;1286;138415;-95
2023/05/23 00:05:30;;;;;;;11.00;5.00;;;;;;;14.29;64.87;100351.38;219408;1286;138363;-96
2023/05/23 00:10:35;;;;;;;10.40;5.50;;;;;;;14.23;64.64;100348.73;218894;1286;138986;-96
2023/05/23 00:15:37;;;;;;;13.10;6.40;;;;;;;14.17;65.28;100352.98;219390;1286;138727;-95
2023/05/23 00:20:45;;;;;;;10.80;5.70;;;;;;;14.11;65.36;100344.87;218751;1287;138330;-94
2023/05/23 00:25:51;;;;;;;11.50;5.40;;;;;;;14.05;65.68;100337.94;219287;1286;95657;-95
2023/05/23 00:30:52;;;;;;;11.60;6.20;;;;;;;14.00;65.55;100334.96;218854;1287;138722;-95
2023/05/23 00:35:52;;;;;;;11.20;6.40;;;;;;;13.95;65.92;100333.80;219385;1286;138429;-95
2023/05/23 00:40:54;;;;;;;11.50;6.30;;;;;;;13.90;66.11;100328.04;218817;1286;138331;-95
2023/05/23 00:45:58;;;;;;;10.40;5.70;;;;;;;13.85;66.02;100328.85;219573;1286;137587;-95
2023/05/23 00:51:01;;;;;;;11.50;6.20;;;;;;;13.80;66.21;100331.95;218974;1286;138747;-93
2023/05/23 00:56:03;;;;;;;10.00;5.90;;;;;;;13.75;66.32;100329.61;219491;1286;96181;-95
2023/05/23 01:01:05;;;;;;;11.90;6.20;;;;;;;13.70;66.83;100328.98;218891;1286;137954;-96
2023/05/23 01:06:08;;;;;;;12.30;6.60;;;;;;;13.65;66.78;100329.38;219539;1286;138212;-96
2023/05/23 01:11:20;;;;;;;13.10;6.40;;;;;;;13.60;67.36;100325.45;219035;1286;138323;-95
2023/05/23 01:16:53;;;;;;;11.00;6.20;;;;;;;13.55;68.03;100328.40;219643;1286;138545;-95
2023/05/23 01:22:01;;;;;;;12.00;5.80;;;;;;;13.48;68.33;100325.64;219243;1286;138660;-96
2023/05/23 01:27:13;;;;;;;13.30;7.00;;;;;;;13.42;68.56;100324.08;219705;1286;138482;-96
2023/05/23 01:32:39;;;;;;;13.00;6.00;;;;;;;13.36;69.06;100318.34;219248;1287;138163;-95
2023/05/23 01:37:40;;;;;;;;;;;;;;;13.31;69.14;100313.52;219994;1286;95678;-95
2023/05/23 01:42:49;;;;;;;13.10;7.10;;;;;;;13.25;69.23;100313.05;219429;1286;124400;-96
2023/05/23 01:47:50;;;;;;;12.80;7.10;;;;;;;13.21;69.30;100309.75;219329;1283;137408;-86
2023/05/23 01:52:52;;;;;;;12.10;7.10;;;;;;;13.17;69.59;100305.17;218281;1287;138523;-86
2023/05/23 01:57:55;;;;;;;14.20;6.70;;;;;;;13.13;69.49;100300.13;218596;1286;140249;-85
2023/05/23 02:02:56;;;;;;;11.40;7.00;;;;;;;13.09;70.14;100293.66;218035;1287;139858;-84
2023/05/23 02:07:57;;;;;;;13.90;6.90;;;;;;;13.06;69.97;100289.00;218717;1286;95989;-86
2023/05/23 02:12:57;;;;;;;11.10;6.70;;;;;;;13.04;70.10;100284.58;218202;1286;139191;-86
2023/05/23 02:17:57;;;;;;;12.70;6.90;;;;;;;13.01;70.63;100279.86;218600;1287;140452;-86
2023/05/23 02:22:58;;;;;;;12.80;6.90;;;;;;;12.98;70.48;100277.56;218163;1287;139780;-86
2023/05/23 02:27:58;;;;;;;13.40;7.20;;;;;;;12.94;70.90;100272.25;218625;1288;139317;-86
2023/05/23 02:33:04;;;;;;;11.90;6.10;;;;;;;12.91;71.29;100267.28;218050;1287;139943;-86
2023/05/23 02:38:04;;;;;;;10.40;5.80;;;;;;;12.88;71.43;100263.81;218702;1287;107031;-86
2023/05/23 02:43:04;;;;;;;12.50;6.70;;;;;;;12.85;71.32;100264.84;217813;1288;297515;-86
2023/05/23 02:48:05;;;;;;;13.40;6.90;;;;;;;12.82;71.50;100262.56;218592;1287;139178;-85
2023/05/23 02:53:05;;;;;;;12.90;7.40;;;;;;;12.79;71.89;100258.38;218111;1287;139388;-86
2023/05/23 02:58:06;;;;;;;15.90;7.20;;;;;;;12.77;71.70;100252.22;218578;1288;140788;-86
2023/05/23 03:03:06;;;;;;;16.00;6.70;;;;;;;12.75;72.30;100253.57;217929;1287;139687;-86
2023/05/23 03:08:07;;;;;;;11.70;6.70;;;;;;;12.72;72.45;100251.68;218749;1287;95944;-86
2023/05/23 03:13:07;;;;;;;11.50;6.70;;;;;;;12.71;72.60;100251.28;218159;1287;139806;-86
2023/05/23 03:18:08;;;;;;;11.70;7.30;;;;;;;12.69;72.91;100244.33;218663;1287;138872;-86
2023/05/23 03:23:08;;;;;;;15.20;8.00;;;;;;;12.68;73.11;100240.06;218113;1287;139102;-86
2023/05/23 03:28:11;;;;;;;15.10;7.20;;;;;;;12.68;73.31;100244.33;218728;1287;139098;-85
2023/05/23 03:33:11;;;;;;;13.30;7.50;;;;;;;12.68;73.43;100243.94;218160;1287;139805;-86
2023/05/23 03:38:12;;;;;;;14.30;8.00;;;;;;;12.69;73.26;100240.23;218716;1287;95939;-85
2023/05/23 03:43:12;;;;;;;11.80;6.90;;;;;;;12.69;73.68;100243.07;218166;1287;138814;-85
2023/05/23 03:48:12;;;;;;;13.40;6.60;;;;;;;12.70;74.13;100242.06;218635;1288;139269;-85
2023/05/23 03:53:13;;;;;;;14.20;8.10;;;;;;;12.70;74.11;100242.83;218134;1288;139265;-85
2023/05/23 03:58:13;;;;;;;13.90;7.60;;;;;;;12.72;74.36;100243.79;218664;1287;139041;-84
2023/05/23 04:03:16;;;;;;;13.00;7.20;;;;;;;12.74;74.76;100244.09;218172;1287;140156;-85
2023/05/23 04:08:20;;;;;;;16.20;7.40;;;;;;;12.77;75.18;100246.70;218623;1287;96177;-85
2023/05/23 04:13:22;;;;;;;11.50;7.00;;;;;;;12.81;75.49;100240.30;218159;1288;139476;-85
2023/05/23 04:18:22;;;;;;;16.50;7.00;;;;;;;12.85;75.35;100231.15;218615;1287;139174;-85
2023/05/23 04:23:23;;;;;;;12.10;7.60;;;;;;;12.93;75.59;100231.46;218201;1287;139296;-85
2023/05/23 04:28:25;;;;;;;12.20;8.10;;;;;;;13.02;75.96;100235.02;218568;1288;139386;-85
2023/05/23 04:33:27;;;;;;;14.50;7.90;;;;;;;13.15;76.50;100231.36;218093;1288;139748;-84
2023/05/23 04:38:27;;;;;;;14.10;8.40;;;;;;;13.29;76.25;100222.63;218760;1287;107723;-86
2023/05/23 04:43:28;;;;;;;13.80;7.90;;;;;;;13.40;76.12;100218.96;218181;1287;139713;-85
2023/05/23 04:48:30;;;;;;;16.50;8.20;;;;;;;13.53;76.50;100220.48;218588;1287;139302;-86
2023/05/23 04:53:30;;;;;;;14.60;8.10;;;;;;;13.72;76.15;100219.21;218149;1287;139662;-86
2023/05/23 04:58:31;;;;;;;14.10;9.10;;;;;;;13.89;75.79;100213.35;218724;1287;139299;-86
2023/05/23 05:03:31;;;;;;;15.00;8.90;;;;;;;14.06;75.61;100212.14;218092;1287;141434;-90
2023/05/23 05:08:31;;;;;;;18.30;8.70;;;;;;;14.21;75.44;100208.42;218684;1287;96327;-90
2023/05/23 05:13:32;;;;;;;15.40;8.40;;;;;;;14.38;75.35;100201.83;217993;1287;139198;-90
2023/05/23 05:18:32;;;;;;;14.80;8.40;;;;;;;14.57;75.28;100202.45;218477;1287;139208;-90
2023/05/23 05:23:33;;;;;;;15.90;8.40;;;;;;;14.82;75.27;100193.50;218039;1287;139248;-91
2023/05/23 05:28:33;;;;;;;18.50;9.90;;;;;;;15.16;74.59;100182.61;218627;1287;139236;-91
2023/05/23 05:33:34;;;;;;;21.50;9.10;;;;;;;15.57;73.77;100183.79;218141;1287;139097;-89
2023/05/23 05:38:35;;;;;;;15.30;8.50;;;;;;;16.08;73.22;100182.52;218740;1287;96006;-91
2023/05/23 05:43:35;;;;;;;18.50;8.80;;;;;;;16.67;72.49;100181.80;218013;1287;138948;-90
2023/05/23 05:48:36;;;;;;;18.50;8.80;;;;;;;17.32;70.98;100188.85;218614;1287;138869;-91
2023/05/23 05:53:36;;;;;;;16.60;8.20;;;;;;;17.98;68.92;100188.23;218038;1288;138965;-92
2023/05/23 05:58:37;;;;;;;21.30;7.80;;;;;;;18.52;66.97;100179.64;218419;1287;140488;-90
2023/05/23 06:03:37;;;;;;;17.50;7.70;;;;;;;19.05;65.42;100172.17;218075;1287;138842;-90
2023/05/23 06:08:38;;;;;;;16.30;7.20;;;;;;;19.41;63.74;100171.81;218814;1287;96235;-90
2023/05/23 06:13:38;;;;;;;27.80;9.00;;;;;;;19.64;62.80;100168.48;218076;1287;138304;-89
2023/05/23 06:18:39;;;;;;;24.30;9.40;;;;;;;19.88;62.13;100160.10;218638;1287;138158;-90
2023/05/23 06:23:40;;;;;;;23.40;8.40;;;;;;;19.96;61.42;100154.43;217985;1287;139337;-90
2023/05/23 06:28:40;;;;;;;23.70;8.00;;;;;;;19.99;60.96;100148.51;218610;1288;138536;-90
2023/05/23 06:33:41;;;;;;;24.80;7.70;;;;;;;20.04;60.71;100146.02;218089;1288;139451;-90
2023/05/23 06:38:42;;;;;;;19.60;8.20;;;;;;;20.13;60.24;100152.21;218516;1287;138415;-90
2023/05/23 06:43:42;;;;;;;29.30;8.60;;;;;;;20.13;60.49;100152.49;218202;1287;138985;-91
2023/05/23 06:48:43;;;;;;;17.00;7.00;;;;;;;20.12;60.20;100147.82;218671;1287;138332;-88
2023/05/23 06:53:43;;;;;;;16.80;6.30;;;;;;;20.36;60.75;100145.98;218260;1287;138643;-89
2023/05/23 06:58:43;;;;;;;9.50;5.90;;;;;;;20.64;59.62;100148.63;218678;1287;138507;-91
2023/05/23 07:03:44;;;;;;;15.00;6.10;;;;;;;20.92;58.87;100147.98;218160;1288;138208;-90
2023/05/23 07:08:45;;;;;;;13.20;6.00;;;;;;;21.27;57.85;100150.84;218612;1288;138620;-90
2023/05/23 07:13:46;;;;;;;16.00;6.40;;;;;;;21.68;57.13;100148.91;218328;1287;138918;-92
2023/05/23 07:18:46;;;;;;;13.50;5.40;;;;;;;22.10;55.34;100153.08;218680;1287;138680;-91
2023/05/23 07:23:47;;;;;;;11.40;5.80;;;;;;;22.40;54.88;100147.29;218190;1288;138526;-93
2023/05/23 07:28:47;;;;;;;12.00;5.10;;;;;;;22.84;53.47;100145.10;218747;1287;138547;-92
2023/05/23 07:33:47;;;;;;;17.00;6.40;;;;;;;23.09;51.33;100138.14;218188;1287;138881;-92
2023/05/23 07:38:48;;;;;;;12.10;5.40;;;;;;;23.15;50.71;100138.34;218649;1287;140146;-91
2023/05/23 07:43:48;;;;;;;14.50;5.70;;;;;;;23.20;49.94;100140.32;218193;1287;138904;-90
2023/05/23 07:48:49;;;;;;;11.20;5.00;;;;;;;23.46;50.19;100137.04;218614;1287;138381;-91
2023/05/23 07:53:49;;;;;;;14.30;5.90;;;;;;;23.76;48.50;100137.40;218308;1287;138534;-89
2023/05/23 07:58:50;;;;;;;14.80;5.20;;;;;;;23.95;47.93;100136.16;218730;1287;138649;-91
2023/05/23 08:03:51;;;;;;;10.00;4.60;;;;;;;24.01;47.32;100134.67;218122;1287;138768;-91
2023/05/23 08:08:51;;;;;;;14.10;5.00;;;;;;;24.40;47.18;100135.45;218704;1287;138684;-92
2023/05/23 08:13:52;;;;;;;10.30;4.90;;;;;;;24.84;46.37;100137.33;218311;1287;138612;-91
2023/05/23 08:18:52;;;;;;;12.40;4.80;;;;;;;25.31;44.70;100136.99;218739;1287;138436;-93
2023/05/23 08:23:52;;;;;;;11.00;4.50;;;;;;;25.75;43.94;100132.73;218109;1288;138570;-93
2023/05/23 08:28:53;;;;;;;8.70;4.30;;;;;;;26.28;43.24;100132.61;218691;1288;138498;-93
2023/05/23 08:33:53;;;;;;;22.20;6.00;;;;;;;26.75;42.56;100133.95;218232;1288;138240;-93
2023/05/23 08:38:54;;;;;;;12.30;4.90;;;;;;;27.14;41.71;100125.45;218838;1287;139859;-91
2023/05/23 08:43:54;;;;;;;10.30;4.50;;;;;;;27.57;41.12;100125.95;218362;1287;138542;-94
2023/05/23 08:48:55;;;;;;;9.80;4.40;;;;;;;27.63;39.28;100127.04;218796;1287;138238;-92
2023/05/23 08:53:57;;;;;;;7.80;3.60;;;;;;;27.64;39.13;100122.36;218098;1289;138376;-91
2023/05/23 08:58:58;;;;;;;8.20;4.10;;;;;;;28.11;38.62;100115.67;218739;1287;138336;-93
2023/05/23 09:04:03;;;;;;;9.70;3.70;;;;;;;28.49;37.77;100113.55;218298;1287;138549;-93
2023/05/23 09:09:04;;;;;;;13.00;4.40;;;;;;;28.99;37.26;100115.13;218344;1287;138562;-93
2023/05/23 09:14:06;;;;;;;13.80;4.60;;;;;;;29.21;35.15;100113.23;218811;1287;96065;-94
2023/05/23 09:19:14;;;;;;;14.20;4.60;;;;;;;29.47;34.44;100105.77;218268;1287;138668;-93
2023/05/23 09:24:15;;;;;;;7.60;4.10;;;;;;;30.01;33.68;100106.78;218740;1288;137721;-93
2023/05/23 09:29:19;;;;;;;7.50;3.80;;;;;;;30.10;33.42;100104.09;218165;1287;140267;-93
2023/05/23 09:34:19;;;;;;;8.80;3.60;;;;;;;30.14;32.96;100107.91;218678;1290;138149;-90
2023/05/23 09:39:20;;;;;;;10.00;3.80;;;;;;;30.18;32.48;100104.74;218059;1288;139383;-92
2023/05/23 09:44:23;;;;;;;8.50;3.60;;;;;;;29.67;32.47;100100.02;218791;1287;95958;-91
2023/05/23 09:49:25;;;;;;;9.50;4.00;;;;;;;29.25;32.89;100095.42;218133;1288;138353;-92
2023/05/23 09:54:26;;;;;;;16.10;4.80;;;;;;;28.84;32.19;100090.64;218516;1287;138293;-93
2023/05/23 09:59:33;;;;;;;10.20;3.70;;;;;;;28.21;32.56;100089.45;218073;1287;138583;-92
2023/05/23 10:04:35;;;;;;;8.80;4.20;;;;;;;27.79;33.02;100089.59;218561;1287;138553;-92
2023/05/23 10:09:39;;;;;;;10.30;4.70;;;;;;;27.60;33.69;100086.49;217953;1288;139738;-89
2023/05/23 10:14:44;;;;;;;7.50;4.10;;;;;;;27.37;33.91;100087.58;218732;1288;107958;-93
2023/05/23 10:19:44;;;;;;;;;;;;;;;26.95;34.22;100086.60;218245;1287;138419;-91
2023/05/23 10:24:46;;;;;;;9.10;4.10;;;;;;;26.82;35.08;100084.45;218552;1288;125193;-92
2023/05/23 10:29:47;;;;;;;8.10;4.50;;;;;;;26.95;35.22;100079.71;218046;1288;138337;-92
2023/05/23 10:35:32;;;;;;;11.40;4.50;;;;;;;27.29;35.96;100078.55;218718;1287;138280;-94
2023/05/23 10:40:54;;;;;;;8.10;4.30;;;;;;;27.46;34.89;100075.23;217547;1288;139828;-93
2023/05/23 10:45:54;;;;;;;8.90;4.30;;;;;;;27.75;34.51;100067.77;218647;1287;138230;-94
2023/05/23 10:51:09;;;;;;;10.80;4.40;;;;;;;28.16;35.06;100057.86;218231;1288;139082;-91
2023/05/23 10:56:22;;;;;;;10.30;5.00;;;;;;;28.58;34.27;100058.05;218767;1288;105530;-95
2023/05/23 11:01:23;;;;;;;10.20;4.20;;;;;;;28.76;34.31;100062.08;218029;1288;139187;-91
2023/05/23 11:06:41;;;;;;;8.40;4.70;;;;;;;28.77;33.29;100068.88;218823;1287;138857;-92
2023/05/23 11:11:47;;;;;;;9.60;4.70;;;;;;;28.26;33.51;100063.38;218168;1287;139458;-91
2023/05/23 11:16:48;;;;;;;10.20;4.20;;;;;;;28.25;34.03;100056.08;218619;1287;138292;-93
2023/05/23 11:21:52;;;;;;;8.50;4.10;;;;;;;28.56;33.51;100052.33;218250;1288;138849;-95
2023/05/23 11:26:58;;;;;;;8.20;4.10;;;;;;;28.26;32.95;100052.01;218824;1288;138242;-90
2023/05/23 11:31:59;;;;;;;9.20;4.10;;;;;;;27.96;33.50;100061.09;218620;1288;138533;-94
2023/05/23 11:36:59;;;;;;;24.10;5.80;;;;;;;27.81;34.23;100061.23;218959;1288;140060;-94
2023/05/23 11:42:03;;;;;;;12.50;4.60;;;;;;;27.89;34.31;100061.61;218349;1287;139021;-94
2023/05/23 11:47:06;;;;;;;18.70;5.10;;;;;;;27.81;33.84;100078.27;218804;1288;138324;-93
2023/05/23 11:52:07;;;;;;;13.20;4.90;;;;;;;27.18;35.96;100097.13;218184;1288;138912;-94
2023/05/23 11:57:07;;;;;;;10.80;5.80;;;;;;;26.05;39.41;100109.63;218768;1287;138390;-92
2023/05/23 12:02:08;;;;;;;10.90;5.40;;;;;;;25.23;42.26;100110.46;218253;1290;139418;-96
2023/05/23 12:07:08;;;;;;;9.50;4.90;;;;;;;24.71;44.41;100112.34;218680;1288;139756;-93
2023/05/23 12:12:09;;;;;;;11.10;5.00;;;;;;;24.53;45.84;100113.73;218178;1289;140161;-92
2023/05/23 12:17:12;;;;;;;16.70;5.90;;;;;;;24.27;46.45;100117.80;218634;1288;138612;-91
2023/05/23 12:22:12;;;;;;;10.40;6.30;;;;;;;23.83;48.68;100115.20;218121;1288;138804;-94
2023/05/23 12:27:13;;;;;;;12.20;6.00;;;;;;;23.39;50.26;100116.11;218706;1287;139511;-92
2023/05/23 12:32:13;;;;;;;11.90;6.90;;;;;;;23.19;51.54;100111.65;218213;1287;138566;-93
2023/05/23 12:37:14;;;;;;;12.90;7.70;;;;;;;22.99;52.95;100110.27;218528;1288;138442;-93
2023/05/23 12:42:14;;;;;;;13.50;7.80;;;;;;;22.78;54.01;100113.20;218105;1288;138993;-92
2023/05/23 12:47:15;;;;;;;14.80;7.80;;;;;;;22.62;55.71;100108.64;218777;1289;138493;-92
2023/05/23 12:52:15;;;;;;;13.50;7.60;;;;;;;22.40;56.90;100104.41;218048;1288;138337;-94
2023/05/23 12:57:16;;;;;;;11.30;6.40;;;;;;;22.19;57.76;100105.89;218693;1287;138515;-91
2023/05/23 13:02:17;;;;;;;17.00;8.30;;;;;;;21.84;58.52;100117.05;218409;1288;139034;-92
2023/05/23 13:07:17;;;;;;;16.20;7.20;;;;;;;21.40;59.35;100115.16;218604;1288;138279;-93
2023/05/23 13:12:18;;;;;;;13.00;7.80;;;;;;;21.00;61.37;100115.86;218035;1288;138992;-90
2023/05/23 13:17:18;;;;;;;13.10;7.50;;;;;;;20.75;63.97;100115.61;218458;1291;138503;-92
2023/05/23 13:23:28;;;;;;;;;;;;;;;;;;;;;
2023/05/23 13:28:00;;;;;;;13.10;7.50;;;;;;;20.42;67.23;100118.60;218559;1288;138474;-85
2023/05/23 13:33:01;;;;;;;14.00;8.60;;;;;;;20.26;67.77;100115.58;218022;1288;138598;-83
2023/05/23 13:38:02;;;;;;;15.60;8.80;;;;;;;20.13;69.07;100109.45;218696;1288;96052;-83
2023/05/23 13:43:02;;;;;;;19.10;10.90;;;;;;;19.94;70.29;100110.12;218074;1287;138924;-83
2023/05/23 13:48:03;;;;;;;19.70;10.90;;;;;;;19.74;72.85;100116.03;218466;1289;140533;-83
2023/05/23 13:53:07;;;;;;;15.40;9.90;;;;;;;19.51;74.62;100111.14;217981;1289;139826;-83
2023/05/23 13:58:07;;;;;;;16.00;11.20;;;;;;;19.39;74.67;100108.89;218597;1288;139198;-82
2023/05/23 14:03:08;;;;;;;15.20;10.00;;;;;;;19.28;75.57;100115.18;218101;1288;139340;-83
2023/05/23 14:08:10;;;;;;;15.50;10.60;;;;;;;19.22;76.00;100115.86;218764;1288;95985;-83
2023/05/23 14:13:11;;;;;;;17.60;11.50;;;;;;;19.22;76.87;100125.58;218076;1288;140226;-82
2023/05/23 14:18:12;;;;;;;15.50;10.60;;;;;;;19.24;77.65;100126.10;218584;1288;139252;-82
2023/05/23 14:23:12;;;;;;;17.90;11.20;;;;;;;19.26;78.51;100117.73;217888;1288;139545;-83
2023/05/23 14:28:13;;;;;;;17.00;11.80;;;;;;;19.28;79.97;100112.71;218571;1288;140802;-85
2023/05/23 14:33:14;;;;;;;17.50;12.30;;;;;;;19.26;80.44;100119.09;218015;1288;139704;-86
2023/05/23 14:38:14;;;;;;;16.40;11.00;;;;;;;19.25;80.42;100116.17;218627;1288;96159;-86
2023/05/23 14:43:15;;;;;;;15.50;11.30;;;;;;;19.35;79.78;100116.73;217791;1289;300378;-85
2023/05/23 14:48:15;;;;;;;16.40;11.00;;;;;;;19.47;79.91;100120.20;218609;1288;139433;-85
2023/05/23 14:53:20;;;;;;;16.00;10.80;;;;;;;19.54;80.16;100124.63;218048;1288;139924;-87
2023/05/23 14:58:22;;;;;;;14.80;10.20;;;;;;;19.51;80.32;100126.22;218353;1288;140219;-87
2023/05/23 15:03:22;;;;;;;15.30;9.80;;;;;;;19.50;79.63;100121.61;218059;1289;139842;-85
2023/05/23 15:08:23;;;;;;;15.50;8.70;;;;;;;19.52;79.27;100118.16;218720;1288;95923;-83
2023/05/23 15:13:23;;;;;;;12.00;8.70;;;;;;;19.53;78.39;100110.45;217959;1289;139253;-86
2023/05/23 15:18:24;;;;;;;14.50;9.60;;;;;;;19.57;77.90;100108.40;218576;1288;139055;-87
2023/05/23 15:23:24;;;;;;;12.50;8.60;;;;;;;19.60;77.66;100105.00;218065;1288;139371;-85
2023/05/23 15:28:24;;;;;;;14.90;8.70;;;;;;;19.56;78.85;100106.86;218509;1288;139461;-88
2023/05/23 15:33:25;;;;;;;17.30;10.20;;;;;;;19.47;78.93;100099.72;217970;1290;139498;-86
2023/05/23 15:38:25;;;;;;;13.20;8.90;;;;;;;19.45;78.33;100097.17;218756;1289;110748;-86
2023/05/23 15:43:26;;;;;;;12.80;8.50;;;;;;;19.42;77.97;100090.20;218076;1288;139920;-87
2023/05/23 15:48:26;;;;;;;15.20;9.60;;;;;;;19.38;77.83;100084.91;218513;1288;140262;-86
2023/05/23 15:53:27;;;;;;;15.40;9.80;;;;;;;19.36;77.81;100081.71;218039;1289;139371;-88
2023/05/23 15:58:27;;;;;;;12.00;8.30;;;;;;;19.33;77.83;100077.65;218538;1292;139154;-86
2023/05/23 16:03:28;;;;;;;13.70;9.30;;;;;;;19.31;77.95;100068.71;218011;1288;139305;-86
2023/05/23 16:08:28;;;;;;;15.80;9.60;;;;;;;19.31;79.29;100062.57;218647;1287;96313;-86
2023/05/23 16:13:29;;;;;;;15.00;8.00;;;;;;;19.31;80.14;100056.84;218053;1288;139062;-86
2023/05/23 16:18:29;;;;;;;12.20;7.60;;;;;;;19.31;79.47;100057.63;218586;1288;140661;-86
2023/05/23 16:23:30;;;;;;;15.10;9.10;;;;;;;19.29;79.65;100054.33;217797;1288;140439;-87
2023/05/23 16:28:30;;;;;;;14.10;9.00;;;;;;;19.24;80.47;100043.98;218301;1289;139299;-88
2023/05/23 16:33:31;;;;;;;14.30;10.40;;;;;;;19.13;82.31;100039.83;217791;1288;140446;-88
2023/05/23 16:38:31;;;;;;;14.70;10.50;;;;;;;18.99;83.71;100038.86;218637;1287;96000;-88
2023/05/23 16:43:32;;;;;;;16.10;9.40;;;;;;;19.00;83.01;100041.63;217990;1287;139534;-88
2023/05/23 16:48:33;;;;;;;13.70;9.60;;;;;;;19.06;82.63;100036.03;218443;1287;141183;-88
2023/05/23 16:53:33;;;;;;;14.90;8.10;;;;;;;19.10;83.05;100034.79;217897;1288;140157;-90
2023/05/23 16:58:37;;;;;;;14.50;8.90;;;;;;;19.04;83.26;100036.56;218500;1288;139248;-89
2023/05/23 17:03:40;;;;;;;14.50;8.60;;;;;;;19.03;83.01;100032.46;218047;1288;140077;-90
2023/05/23 17:08:42;;;;;;;13.80;7.90;;;;;;;18.99;83.85;100030.96;218693;1289;106117;-90
2023/05/23 17:13:43;;;;;;;13.70;8.30;;;;;;;18.87;83.75;100034.05;218050;1288;139038;-89
2023/05/23 17:18:43;;;;;;;13.50;8.50;;;;;;;18.81;82.90;100040.67;218659;1287;138992;-90
2023/05/23 17:23:44;;;;;;;12.20;8.20;;;;;;;18.79;81.57;100044.55;218107;1288;140279;-91
2023/05/23 17:28:45;;;;;;;10.90;7.20;;;;;;;18.74;82.70;100048.11;218572;1288;138985;-92
2023/05/23 17:33:52;;;;;;;12.10;8.30;;;;;;;18.64;82.87;100052.53;218072;1288;141217;-90
2023/05/23 17:38:52;;;;;;;11.10;7.70;;;;;;;18.59;82.71;100053.15;218414;1288;139184;-93
2023/05/23 17:43:53;;;;;;;13.80;8.90;;;;;;;18.52;83.21;100052.79;218008;1288;139051;-90
2023/05/23 17:48:53;;;;;;;15.70;8.80;;;;;;;18.43;83.54;100055.27;218421;1287;139116;-90
2023/05/23 17:53:53;;;;;;;14.30;8.70;;;;;;;18.36;84.68;100062.93;218038;1287;139053;-90
2023/05/23 17:58:55;;;;;;;14.70;7.80;;;;;;;18.28;84.80;100068.20;218572;1289;139335;-90
2023/05/23 18:03:55;;;;;;;12.30;8.80;;;;;;;18.23;84.84;100070.09;218078;1288;139944;-90
2023/05/23 18:08:55;;;;;;;13.40;8.90;;;;;;;18.17;85.44;100079.00;218596;1287;139246;-90
2023/05/23 18:13:56;;;;;;;13.10;8.70;;;;;;;18.14;85.73;100079.95;218209;1287;139707;-89
2023/05/23 18:18:59;;;;;;;14.10;8.30;;;;;;;18.09;85.87;100090.58;218432;1287;139117;-91
2023/05/23 18:24:01;;;;;;;12.10;7.80;;;;;;;18.02;86.57;100098.31;218177;1287;139624;-91
2023/05/23 18:29:03;;;;;;;12.70;8.10;;;;;;;17.99;85.58;100106.98;217925;1288;139369;-92
2023/05/23 18:34:03;;;;;;;14.50;8.50;;;;;;;17.95;86.02;100110.98;218532;1288;139146;-91
2023/05/23 18:39:04;;;;;;;14.80;9.80;;;;;;;17.90;86.12;100113.48;218002;1287;139989;-89
2023/05/23 18:44:05;;;;;;;18.30;11.40;;;;;;;17.87;85.68;100128.66;218652;1287;96563;-91
2023/05/23 18:49:05;;;;;;;16.30;10.30;;;;;;;17.84;87.20;100140.91;217796;1291;139462;-92
2023/05/23 18:54:06;;;;;;;15.00;10.30;;;;;;;17.78;87.66;100147.25;218526;1288;139661;-91
2023/05/23 18:59:07;;;;;;;14.80;10.10;;;;;;;17.67;89.00;100143.59;217915;1287;140024;-89
2023/05/23 19:04:08;;;;;;;15.90;11.30;;;;;;;17.59;88.81;100139.39;218654;1287;140148;-88
2023/05/23 19:09:10;;;;;;;15.10;9.90;;;;;;;17.56;89.65;100136.77;218123;1287;140533;-86
2023/05/23 19:14:10;;;;;;;15.40;10.50;;;;;;;17.49;89.13;100142.81;218679;1287;104095;-87
2023/05/23 19:19:11;;;;;;;18.00;13.10;;;;;;;17.45;88.76;100148.29;217998;1288;140394;-87
2023/05/23 19:24:11;;;;;;;26.30;20.30;;;;;;;17.43;88.83;100150.41;218571;1287;139913;-86
2023/05/23 19:29:12;;;;;;;21.40;16.10;;;;;;;17.38;90.98;100150.73;217938;1288;139546;-86
2023/05/23 19:34:12;;;;;;;20.00;15.20;;;;;;;17.27;91.41;100152.70;218519;1287;139256;-86
2023/05/23 19:39:13;;;;;;;21.70;14.90;;;;;;;17.21;91.61;100155.70;218022;1287;140131;-89
2023/05/23 19:44:14;;;;;;;19.70;15.00;;;;;;;17.16;91.74;100161.35;218694;1287;97284;-88
2023/05/23 19:49:16;;;;;;;25.60;15.00;;;;;;;17.13;92.05;100172.94;217968;1287;139534;-89
2023/05/23 19:54:17;;;;;;;21.90;14.80;;;;;;;17.08;92.37;100176.84;218557;1288;139210;-88
2023/05/23 19:59:17;;;;;;;19.40;14.20;;;;;;;17.03;93.05;100178.22;217984;1287;139639;-87
2023/05/23 20:04:17;;;;;;;20.00;13.80;;;;;;;16.96;94.06;100175.00;218546;1288;139424;-89
2023/05/23 20:09:18;;;;;;;21.30;14.60;;;;;;;16.93;93.91;100183.09;217935;1288;139478;-88
2023/05/23 20:14:19;;;;;;;14.70;10.60;;;;;;;16.93;94.04;100188.50;217688;1288;141401;-86
2023/05/23 20:19:19;;;;;;;21.50;13.30;;;;;;;16.91;94.68;100195.11;218379;1288;139249;-86
2023/05/23 20:24:20;;;;;;;18.40;13.20;;;;;;;16.89;95.26;100198.10;218040;1287;141892;-87
2023/05/23 20:29:20;;;;;;;16.00;11.90;;;;;;;16.86;95.04;100195.84;217860;1287;141649;-87
2023/05/23 20:34:21;;;;;;;17.30;13.10;;;;;;;16.84;95.79;100194.94;218207;1288;139404;-87
2023/05/23 20:39:22;;;;;;;20.80;14.30;;;;;;;16.77;95.57;100189.75;217884;1288;143968;-89
2023/05/23 20:44:23;;;;;;;19.00;13.20;;;;;;;16.74;96.56;100189.71;218326;1288;139343;-88
2023/05/23 20:49:25;;;;;;;19.40;14.10;;;;;;;16.69;96.37;100197.10;217830;1287;141281;-88
2023/05/23 20:54:26;;;;;;;17.20;12.80;;;;;;;16.64;96.34;100197.11;218548;1288;96292;-86
2023/05/23 20:59:29;;;;;;;22.00;14.20;;;;;;;16.60;96.44;100206.61;217915;1287;141558;-86
2023/05/23 21:04:29;;;;;;;19.00;14.00;;;;;;;16.57;96.90;100212.64;218581;1287;139164;-87
2023/05/23 21:09:30;;;;;;;19.10;14.30;;;;;;;16.52;96.70;100216.05;218029;1287;141386;-87
2023/05/23 21:14:30;;;;;;;17.70;13.40;;;;;;;16.47;97.47;100218.19;218566;1287;138178;-86
2023/05/23 21:19:31;;;;;;;20.70;14.30;;;;;;;16.42;97.69;100219.23;217918;1289;142758;-86
2023/05/23 21:24:31;;;;;;;19.80;13.90;;;;;;;16.38;97.54;100221.00;218562;1288;96178;-87
2023/05/23 21:29:32;;;;;;;20.00;14.00;;;;;;;16.35;97.12;100221.45;217847;1287;141769;-87
2023/05/23 21:34:33;;;;;;;17.70;12.60;;;;;;;16.32;97.32;100228.39;218518;1288;139518;-87
2023/05/23 21:39:33;;;;;;;17.20;13.30;;;;;;;16.29;96.73;100222.58;217953;1288;141001;-87
2023/05/23 21:44:33;;;;;;;18.60;13.60;;;;;;;16.24;98.45;100223.13;218506;1287;139309;-87
2023/05/23 21:49:34;;;;;;;20.00;14.00;;;;;;;16.17;98.47;100221.33;217991;1287;141741;-87
2023/05/23 21:54:34;;;;;;;18.80;14.50;;;;;;;16.12;98.84;100227.19;218667;1287;96123;-86
2023/05/23 21:59:35;;;;;;;19.20;13.60;;;;;;;16.07;98.55;100223.80;218001;1287;142735;-86
2023/05/23 22:04:35;;;;;;;21.70;15.20;;;;;;;16.02;98.82;100226.14;218545;1287;140124;-87
2023/05/23 22:09:36;;;;;;;18.40;12.30;;;;;;;15.97;98.14;100225.11;217935;1288;142537;-86
2023/05/23 22:14:36;;;;;;;22.50;13.30;;;;;;;15.93;98.34;100223.48;218589;1287;139966;-87
2023/05/23 22:19:36;;;;;;;16.50;11.40;;;;;;;15.88;98.78;100223.41;218062;1287;141422;-87
2023/05/23 22:24:37;;;;;;;17.90;13.70;;;;;;;15.82;98.57;100221.37;218674;1287;95893;-87
2023/05/23 22:29:38;;;;;;;17.90;11.90;;;;;;;15.75;98.38;100222.23;218022;1287;141132;-87
2023/05/23 22:34:38;;;;;;;17.20;12.40;;;;;;;15.70;98.15;100225.72;218534;1288;139032;-88